sensor_id;sensor_type;location;lat;lon;timestamp;P1;durP1;ratioP1;P2;durP2;ratioP2
44434;SDS011;30138;20.964;105.830;2024-03-22T00:04:55;60.05;;;37.80;;
44434;SDS011;30138;20.964;105.830;2024-03-22T00:10:02;60.42;;;38.35;;
44434;SDS011;30138;20.964;105.830;2024-03-22T00:15:18;58.25;;;38.35;;
44434;SDS011;30138;20.964;105.830;2024-03-22T00:20:25;59.38;;;38.17;;
44434;SDS011;30138;20.964;105.830;2024-03-22T00:25:34;60.83;;;38.35;;
44434;SDS011;30138;20.964;105.830;2024-03-22T00:30:43;63.78;;;40.10;;
44434;SDS011;30138;20.964;105.830;2024-03-22T00:40:59;63.45;;;39.17;;
44434;SDS011;30138;20.964;105.830;2024-03-22T00:46:11;66.30;;;40.70;;
44434;SDS011;30138;20.964;105.830;2024-03-22T00:51:20;66.90;;;40.55;;
44434;SDS011;30138;20.964;105.830;2024-03-22T00:56:28;60.50;;;39.30;;
44434;SDS011;30138;20.964;105.830;2024-03-22T01:01:39;61.50;;;40.22;;
44434;SDS011;30138;20.964;105.830;2024-03-22T01:06:47;66.90;;;41.80;;
44434;SDS011;30138;20.964;105.830;2024-03-22T01:11:54;76.13;;;44.17;;
44434;SDS011;30138;20.964;105.830;2024-03-22T01:17:04;72.68;;;44.38;;
44434;SDS011;30138;20.964;105.830;2024-03-22T01:22:13;68.22;;;43.42;;
44434;SDS011;30138;20.964;105.830;2024-03-22T01:27:21;74.15;;;43.97;;
44434;SDS011;30138;20.964;105.830;2024-03-22T01:32:32;78.22;;;46.60;;
44434;SDS011;30138;20.964;105.830;2024-03-22T01:37:39;74.03;;;45.17;;
44434;SDS011;30138;20.964;105.830;2024-03-22T01:42:47;78.10;;;46.58;;
44434;SDS011;30138;20.964;105.830;2024-03-22T01:48:00;79.43;;;48.65;;
44434;SDS011;30138;20.964;105.830;2024-03-22T01:53:08;82.57;;;49.35;;
44434;SDS011;30138;20.964;105.830;2024-03-22T01:58:15;89.28;;;50.65;;
44434;SDS011;30138;20.964;105.830;2024-03-22T02:03:26;86.97;;;50.75;;
44434;SDS011;30138;20.964;105.830;2024-03-22T02:08:34;89.85;;;51.35;;
44434;SDS011;30138;20.964;105.830;2024-03-22T02:13:42;88.28;;;50.72;;
44434;SDS011;30138;20.964;105.830;2024-03-22T02:18:51;90.43;;;53.58;;
44434;SDS011;30138;20.964;105.830;2024-03-22T02:24:00;94.13;;;54.08;;
44434;SDS011;30138;20.964;105.830;2024-03-22T02:29:09;89.13;;;53.70;;
44434;SDS011;30138;20.964;105.830;2024-03-22T02:34:15;97.15;;;54.05;;
44434;SDS011;30138;20.964;105.830;2024-03-22T02:39:25;96.05;;;54.83;;
44434;SDS011;30138;20.964;105.830;2024-03-22T02:44:32;96.75;;;55.42;;
44434;SDS011;30138;20.964;105.830;2024-03-22T02:49:44;102.35;;;56.65;;
44434;SDS011;30138;20.964;105.830;2024-03-22T02:54:54;102.40;;;56.45;;
44434;SDS011;30138;20.964;105.830;2024-03-22T03:00:02;98.35;;;56.95;;
44434;SDS011;30138;20.964;105.830;2024-03-22T03:05:09;107.30;;;59.00;;
44434;SDS011;30138;20.964;105.830;2024-03-22T03:10:18;110.57;;;60.22;;
44434;SDS011;30138;20.964;105.830;2024-03-22T03:15:26;100.72;;;57.95;;
44434;SDS011;30138;20.964;105.830;2024-03-22T03:20:34;106.25;;;56.92;;
44434;SDS011;30138;20.964;105.830;2024-03-22T03:25:44;103.25;;;58.97;;
44434;SDS011;30138;20.964;105.830;2024-03-22T03:30:52;110.35;;;57.85;;
44434;SDS011;30138;20.964;105.830;2024-03-22T03:36:04;104.90;;;54.72;;
44434;SDS011;30138;20.964;105.830;2024-03-22T03:41:13;99.47;;;55.65;;
44434;SDS011;30138;20.964;105.830;2024-03-22T03:46:21;98.35;;;55.53;;
44434;SDS011;30138;20.964;105.830;2024-03-22T03:51:28;104.30;;;56.00;;
44434;SDS011;30138;20.964;105.830;2024-03-22T03:56:38;105.40;;;56.63;;
44434;SDS011;30138;20.964;105.830;2024-03-22T04:01:45;114.65;;;57.92;;
44434;SDS011;30138;20.964;105.830;2024-03-22T04:06:53;108.75;;;59.67;;
44434;SDS011;30138;20.964;105.830;2024-03-22T04:12:02;110.90;;;60.70;;
44434;SDS011;30138;20.964;105.830;2024-03-22T04:17:10;120.70;;;62.53;;
44434;SDS011;30138;20.964;105.830;2024-03-22T04:22:18;119.35;;;64.13;;
44434;SDS011;30138;20.964;105.830;2024-03-22T04:27:27;126.03;;;69.15;;
44434;SDS011;30138;20.964;105.830;2024-03-22T04:32:34;130.38;;;68.15;;
44434;SDS011;30138;20.964;105.830;2024-03-22T04:37:42;137.70;;;74.82;;
44434;SDS011;30138;20.964;105.830;2024-03-22T04:42:51;139.43;;;74.75;;
44434;SDS011;30138;20.964;105.830;2024-03-22T04:47:58;136.68;;;75.40;;
44434;SDS011;30138;20.964;105.830;2024-03-22T04:53:07;153.63;;;81.22;;
44434;SDS011;30138;20.964;105.830;2024-03-22T04:58:16;162.02;;;80.78;;
44434;SDS011;30138;20.964;105.830;2024-03-22T05:03:24;161.55;;;79.90;;
44434;SDS011;30138;20.964;105.830;2024-03-22T05:08:32;157.50;;;78.28;;
44434;SDS011;30138;20.964;105.830;2024-03-22T05:13:42;146.68;;;75.53;;
44434;SDS011;30138;20.964;105.830;2024-03-22T05:18:50;152.13;;;74.97;;
44434;SDS011;30138;20.964;105.830;2024-03-22T05:23:58;149.68;;;73.22;;
44434;SDS011;30138;20.964;105.830;2024-03-22T05:29:08;151.27;;;74.00;;
44434;SDS011;30138;20.964;105.830;2024-03-22T05:34:16;143.60;;;70.90;;
44434;SDS011;30138;20.964;105.830;2024-03-22T05:39:23;143.43;;;71.95;;
44434;SDS011;30138;20.964;105.830;2024-03-22T05:44:33;143.43;;;72.50;;
44434;SDS011;30138;20.964;105.830;2024-03-22T05:49:41;139.40;;;68.90;;
44434;SDS011;30138;20.964;105.830;2024-03-22T05:54:48;126.30;;;64.25;;
44434;SDS011;30138;20.964;105.830;2024-03-22T05:59:57;132.50;;;68.45;;
44434;SDS011;30138;20.964;105.830;2024-03-22T06:05:06;125.97;;;64.05;;
44434;SDS011;30138;20.964;105.830;2024-03-22T06:10:34;129.15;;;68.40;;
44434;SDS011;30138;20.964;105.830;2024-03-22T06:16:16;124.47;;;66.47;;
44434;SDS011;30138;20.964;105.830;2024-03-22T06:21:23;124.93;;;67.78;;
44434;SDS011;30138;20.964;105.830;2024-03-22T06:26:30;118.50;;;62.90;;
44434;SDS011;30138;20.964;105.830;2024-03-22T06:31:38;121.63;;;64.03;;
44434;SDS011;30138;20.964;105.830;2024-03-22T06:36:45;121.80;;;66.28;;
44434;SDS011;30138;20.964;105.830;2024-03-22T06:41:53;116.82;;;66.22;;
44434;SDS011;30138;20.964;105.830;2024-03-22T06:47:04;126.00;;;67.32;;
44434;SDS011;30138;20.964;105.830;2024-03-22T06:52:10;116.18;;;64.20;;
44434;SDS011;30138;20.964;105.830;2024-03-22T06:57:18;123.10;;;64.50;;
44434;SDS011;30138;20.964;105.830;2024-03-22T07:02:27;118.03;;;62.22;;
44434;SDS011;30138;20.964;105.830;2024-03-22T07:07:34;110.10;;;62.83;;
44434;SDS011;30138;20.964;105.830;2024-03-22T07:12:43;123.68;;;65.60;;
44434;SDS011;30138;20.964;105.830;2024-03-22T07:17:52;127.32;;;66.85;;
44434;SDS011;30138;20.964;105.830;2024-03-22T07:22:59;115.22;;;65.53;;
44434;SDS011;30138;20.964;105.830;2024-03-22T07:28:07;113.55;;;63.83;;
44434;SDS011;30138;20.964;105.830;2024-03-22T07:33:16;116.32;;;63.25;;
44434;SDS011;30138;20.964;105.830;2024-03-22T07:38:25;111.35;;;62.22;;
44434;SDS011;30138;20.964;105.830;2024-03-22T07:43:32;113.07;;;63.95;;
44434;SDS011;30138;20.964;105.830;2024-03-22T07:48:43;109.43;;;62.03;;
44434;SDS011;30138;20.964;105.830;2024-03-22T07:53:51;115.75;;;64.13;;
44434;SDS011;30138;20.964;105.830;2024-03-22T07:58:59;112.82;;;62.65;;
44434;SDS011;30138;20.964;105.830;2024-03-22T08:04:08;111.03;;;63.38;;
44434;SDS011;30138;20.964;105.830;2024-03-22T08:09:15;117.50;;;63.08;;
44434;SDS011;30138;20.964;105.830;2024-03-22T08:14:23;119.07;;;66.40;;
44434;SDS011;30138;20.964;105.830;2024-03-22T08:19:32;113.15;;;62.05;;
44434;SDS011;30138;20.964;105.830;2024-03-22T08:24:40;111.28;;;61.80;;
44434;SDS011;30138;20.964;105.830;2024-03-22T08:29:49;112.15;;;64.43;;
44434;SDS011;30138;20.964;105.830;2024-03-22T08:34:59;103.43;;;60.45;;
44434;SDS011;30138;20.964;105.830;2024-03-22T08:40:07;105.68;;;60.70;;
44434;SDS011;30138;20.964;105.830;2024-03-22T08:45:15;102.70;;;58.17;;
44434;SDS011;30138;20.964;105.830;2024-03-22T08:50:25;105.90;;;59.38;;
44434;SDS011;30138;20.964;105.830;2024-03-22T08:55:32;102.80;;;58.33;;
44434;SDS011;30138;20.964;105.830;2024-03-22T09:00:40;107.68;;;60.70;;
44434;SDS011;30138;20.964;105.830;2024-03-22T09:05:50;109.90;;;61.75;;
44434;SDS011;30138;20.964;105.830;2024-03-22T09:10:59;109.95;;;60.83;;
44434;SDS011;30138;20.964;105.830;2024-03-22T09:16:06;102.32;;;57.83;;
44434;SDS011;30138;20.964;105.830;2024-03-22T09:21:17;99.10;;;56.17;;
44434;SDS011;30138;20.964;105.830;2024-03-22T09:26:26;106.05;;;59.40;;
44434;SDS011;30138;20.964;105.830;2024-03-22T09:31:33;109.13;;;60.15;;
44434;SDS011;30138;20.964;105.830;2024-03-22T09:36:42;101.75;;;59.40;;
44434;SDS011;30138;20.964;105.830;2024-03-22T09:41:50;102.22;;;59.95;;
44434;SDS011;30138;20.964;105.830;2024-03-22T09:46:57;108.97;;;59.90;;
44434;SDS011;30138;20.964;105.830;2024-03-22T09:52:08;100.93;;;57.95;;
44434;SDS011;30138;20.964;105.830;2024-03-22T09:57:19;97.53;;;55.88;;
44434;SDS011;30138;20.964;105.830;2024-03-22T10:02:30;101.25;;;55.40;;
44434;SDS011;30138;20.964;105.830;2024-03-22T10:07:41;94.28;;;55.90;;
44434;SDS011;30138;20.964;105.830;2024-03-22T10:12:49;98.82;;;57.50;;
44434;SDS011;30138;20.964;105.830;2024-03-22T10:17:57;99.30;;;57.75;;
44434;SDS011;30138;20.964;105.830;2024-03-22T10:23:07;96.88;;;55.08;;
44434;SDS011;30138;20.964;105.830;2024-03-22T10:28:14;100.53;;;57.70;;
44434;SDS011;30138;20.964;105.830;2024-03-22T10:33:22;100.88;;;56.85;;
44434;SDS011;30138;20.964;105.830;2024-03-22T10:38:31;96.07;;;56.60;;
44434;SDS011;30138;20.964;105.830;2024-03-22T10:43:42;98.03;;;56.30;;
44434;SDS011;30138;20.964;105.830;2024-03-22T10:48:49;99.43;;;57.22;;
44434;SDS011;30138;20.964;105.830;2024-03-22T10:54:00;94.35;;;56.55;;
44434;SDS011;30138;20.964;105.830;2024-03-22T11:04:19;99.22;;;56.75;;
44434;SDS011;30138;20.964;105.830;2024-03-22T11:09:28;98.65;;;56.50;;
44434;SDS011;30138;20.964;105.830;2024-03-22T11:14:39;101.18;;;57.15;;
44434;SDS011;30138;20.964;105.830;2024-03-22T11:20:15;93.07;;;55.15;;
44434;SDS011;30138;20.964;105.830;2024-03-22T11:25:24;103.65;;;58.92;;
44434;SDS011;30138;20.964;105.830;2024-03-22T11:30:32;107.05;;;59.63;;
44434;SDS011;30138;20.964;105.830;2024-03-22T11:35:40;103.03;;;57.92;;
44434;SDS011;30138;20.964;105.830;2024-03-22T11:40:50;97.55;;;57.88;;
44434;SDS011;30138;20.964;105.830;2024-03-22T11:45:57;110.93;;;60.45;;
44434;SDS011;30138;20.964;105.830;2024-03-22T11:51:06;103.30;;;58.72;;
44434;SDS011;30138;20.964;105.830;2024-03-22T11:56:15;107.63;;;62.42;;
44434;SDS011;30138;20.964;105.830;2024-03-22T12:01:26;109.40;;;62.58;;
44434;SDS011;30138;20.964;105.830;2024-03-22T12:06:34;101.82;;;61.55;;
44434;SDS011;30138;20.964;105.830;2024-03-22T12:11:43;110.45;;;61.20;;
44434;SDS011;30138;20.964;105.830;2024-03-22T12:16:50;111.55;;;61.13;;
44434;SDS011;30138;20.964;105.830;2024-03-22T12:21:57;104.95;;;60.70;;
44434;SDS011;30138;20.964;105.830;2024-03-22T12:27:09;109.50;;;62.05;;
44434;SDS011;30138;20.964;105.830;2024-03-22T12:32:18;106.97;;;60.27;;
44434;SDS011;30138;20.964;105.830;2024-03-22T12:37:27;110.95;;;64.78;;
44434;SDS011;30138;20.964;105.830;2024-03-22T12:42:36;110.90;;;62.72;;
44434;SDS011;30138;20.964;105.830;2024-03-22T12:47:43;111.30;;;61.78;;
44434;SDS011;30138;20.964;105.830;2024-03-22T12:52:51;113.68;;;64.25;;
44434;SDS011;30138;20.964;105.830;2024-03-22T12:58:00;110.85;;;63.17;;
44434;SDS011;30138;20.964;105.830;2024-03-22T13:03:08;112.70;;;63.85;;
44434;SDS011;30138;20.964;105.830;2024-03-22T13:08:17;118.35;;;62.22;;
44434;SDS011;30138;20.964;105.830;2024-03-22T13:13:26;109.07;;;60.65;;
44434;SDS011;30138;20.964;105.830;2024-03-22T13:18:33;115.72;;;61.17;;
44434;SDS011;30138;20.964;105.830;2024-03-22T13:23:41;113.05;;;62.08;;
44434;SDS011;30138;20.964;105.830;2024-03-22T13:28:50;114.85;;;61.38;;
44434;SDS011;30138;20.964;105.830;2024-03-22T13:33:57;112.82;;;61.30;;
44434;SDS011;30138;20.964;105.830;2024-03-22T13:39:05;110.15;;;63.33;;
44434;SDS011;30138;20.964;105.830;2024-03-22T13:44:15;109.72;;;60.63;;
44434;SDS011;30138;20.964;105.830;2024-03-22T13:49:22;110.30;;;61.92;;
44434;SDS011;30138;20.964;105.830;2024-03-22T13:54:29;100.97;;;59.03;;
44434;SDS011;30138;20.964;105.830;2024-03-22T13:59:38;104.30;;;59.15;;
44434;SDS011;30138;20.964;105.830;2024-03-22T14:04:45;104.18;;;58.53;;
44434;SDS011;30138;20.964;105.830;2024-03-22T14:09:54;103.10;;;60.13;;
44434;SDS011;30138;20.964;105.830;2024-03-22T14:15:03;104.35;;;58.70;;
44434;SDS011;30138;20.964;105.830;2024-03-22T14:20:11;98.60;;;58.53;;
44434;SDS011;30138;20.964;105.830;2024-03-22T14:25:19;98.78;;;58.55;;
44434;SDS011;30138;20.964;105.830;2024-03-22T14:30:27;103.47;;;57.63;;
44434;SDS011;30138;20.964;105.830;2024-03-22T14:35:35;103.80;;;58.00;;
44434;SDS011;30138;20.964;105.830;2024-03-22T14:40:42;98.63;;;56.17;;
44434;SDS011;30138;20.964;105.830;2024-03-22T14:45:52;99.13;;;58.17;;
44434;SDS011;30138;20.964;105.830;2024-03-22T14:51:01;108.97;;;61.40;;
44434;SDS011;30138;20.964;105.830;2024-03-22T14:56:13;101.70;;;57.97;;
44434;SDS011;30138;20.964;105.830;2024-03-22T15:06:32;101.65;;;56.85;;
44434;SDS011;30138;20.964;105.830;2024-03-22T15:11:40;96.35;;;58.53;;
44434;SDS011;30138;20.964;105.830;2024-03-22T15:16:50;94.03;;;56.75;;
44434;SDS011;30138;20.964;105.830;2024-03-22T15:21:58;99.22;;;56.63;;
44434;SDS011;30138;20.964;105.830;2024-03-22T15:27:07;107.18;;;59.22;;
44434;SDS011;30138;20.964;105.830;2024-03-22T15:32:18;98.88;;;56.72;;
44434;SDS011;30138;20.964;105.830;2024-03-22T15:37:28;93.60;;;56.78;;
44434;SDS011;30138;20.964;105.830;2024-03-22T15:42:35;103.03;;;59.17;;
44434;SDS011;30138;20.964;105.830;2024-03-22T15:47:45;102.45;;;59.67;;
44434;SDS011;30138;20.964;105.830;2024-03-22T15:52:54;108.63;;;61.53;;
44434;SDS011;30138;20.964;105.830;2024-03-22T15:58:03;108.68;;;60.47;;
44434;SDS011;30138;20.964;105.830;2024-03-22T16:03:13;112.45;;;60.70;;
44434;SDS011;30138;20.964;105.830;2024-03-22T16:08:21;106.60;;;59.90;;
44434;SDS011;30138;20.964;105.830;2024-03-22T16:13:28;117.65;;;64.03;;
44434;SDS011;30138;20.964;105.830;2024-03-22T16:18:38;111.45;;;64.10;;
44434;SDS011;30138;20.964;105.830;2024-03-22T16:23:46;121.25;;;65.25;;
44434;SDS011;30138;20.964;105.830;2024-03-22T16:28:55;112.05;;;65.97;;
44434;SDS011;30138;20.964;105.830;2024-03-22T16:34:04;117.20;;;65.20;;
44434;SDS011;30138;20.964;105.830;2024-03-22T16:39:11;115.32;;;63.80;;
44434;SDS011;30138;20.964;105.830;2024-03-22T16:44:19;115.40;;;62.90;;
44434;SDS011;30138;20.964;105.830;2024-03-22T16:49:29;117.65;;;62.65;;
44434;SDS011;30138;20.964;105.830;2024-03-22T16:54:37;113.00;;;61.70;;
44434;SDS011;30138;20.964;105.830;2024-03-22T16:59:44;110.70;;;61.80;;
44434;SDS011;30138;20.964;105.830;2024-03-22T17:04:54;112.70;;;63.97;;
44434;SDS011;30138;20.964;105.830;2024-03-22T17:10:02;112.65;;;62.80;;
44434;SDS011;30138;20.964;105.830;2024-03-22T17:15:10;108.93;;;61.97;;
44434;SDS011;30138;20.964;105.830;2024-03-22T17:20:19;106.50;;;61.42;;
44434;SDS011;30138;20.964;105.830;2024-03-22T17:25:27;102.65;;;59.35;;
44434;SDS011;30138;20.964;105.830;2024-03-22T17:30:34;106.32;;;58.92;;
44434;SDS011;30138;20.964;105.830;2024-03-22T17:35:44;106.25;;;59.33;;
44434;SDS011;30138;20.964;105.830;2024-03-22T17:40:52;103.22;;;59.05;;
44434;SDS011;30138;20.964;105.830;2024-03-22T17:46:00;97.47;;;58.42;;
44434;SDS011;30138;20.964;105.830;2024-03-22T17:51:10;105.72;;;59.08;;
44434;SDS011;30138;20.964;105.830;2024-03-22T17:56:17;104.28;;;58.60;;
44434;SDS011;30138;20.964;105.830;2024-03-22T18:01:24;106.22;;;59.55;;
44434;SDS011;30138;20.964;105.830;2024-03-22T18:06:35;102.75;;;56.83;;
44434;SDS011;30138;20.964;105.830;2024-03-22T18:11:43;95.00;;;56.57;;
44434;SDS011;30138;20.964;105.830;2024-03-22T18:16:52;100.32;;;56.55;;
44434;SDS011;30138;20.964;105.830;2024-03-22T18:22:02;89.65;;;53.90;;
44434;SDS011;30138;20.964;105.830;2024-03-22T18:27:09;95.65;;;55.15;;
44434;SDS011;30138;20.964;105.830;2024-03-22T18:32:17;93.20;;;53.60;;
44434;SDS011;30138;20.964;105.830;2024-03-22T18:37:26;92.35;;;53.20;;
44434;SDS011;30138;20.964;105.830;2024-03-22T18:42:34;92.93;;;54.65;;
44434;SDS011;30138;20.964;105.830;2024-03-22T18:47:43;97.72;;;54.83;;
44434;SDS011;30138;20.964;105.830;2024-03-22T18:52:55;92.72;;;52.22;;
44434;SDS011;30138;20.964;105.830;2024-03-22T18:58:02;94.50;;;51.55;;
44434;SDS011;30138;20.964;105.830;2024-03-22T19:03:10;87.95;;;52.70;;
44434;SDS011;30138;20.964;105.830;2024-03-22T19:08:20;90.55;;;53.38;;
44434;SDS011;30138;20.964;105.830;2024-03-22T19:13:27;92.93;;;53.42;;
44434;SDS011;30138;20.964;105.830;2024-03-22T19:18:34;87.75;;;52.03;;
44434;SDS011;30138;20.964;105.830;2024-03-22T19:23:43;85.72;;;53.08;;
44434;SDS011;30138;20.964;105.830;2024-03-22T19:28:50;88.18;;;54.20;;
44434;SDS011;30138;20.964;105.830;2024-03-22T19:33:57;83.82;;;51.80;;
44434;SDS011;30138;20.964;105.830;2024-03-22T19:39:06;95.80;;;55.50;;
44434;SDS011;30138;20.964;105.830;2024-03-22T19:44:14;91.78;;;53.08;;
44434;SDS011;30138;20.964;105.830;2024-03-22T19:49:22;84.80;;;52.47;;
44434;SDS011;30138;20.964;105.830;2024-03-22T19:54:32;95.90;;;54.60;;
44434;SDS011;30138;20.964;105.830;2024-03-22T19:59:39;88.35;;;52.80;;
44434;SDS011;30138;20.964;105.830;2024-03-22T20:04:47;89.43;;;52.78;;
44434;SDS011;30138;20.964;105.830;2024-03-22T20:09:56;95.82;;;54.58;;
44434;SDS011;30138;20.964;105.830;2024-03-22T20:15:05;95.85;;;53.58;;
44434;SDS011;30138;20.964;105.830;2024-03-22T20:20:12;90.90;;;54.65;;
44434;SDS011;30138;20.964;105.830;2024-03-22T20:25:22;90.15;;;54.03;;
44434;SDS011;30138;20.964;105.830;2024-03-22T20:30:30;93.30;;;54.15;;
44434;SDS011;30138;20.964;105.830;2024-03-22T20:40:49;94.10;;;54.22;;
